createdAt,value
2022-08-07T00:01:12.467Z,91902.09
2022-08-07T00:03:59.643Z,91905.53
2022-08-07T00:06:36.006Z,91908.16
2022-08-07T00:09:16.336Z,91907.97
2022-08-07T00:11:58.543Z,91909.41
2022-08-07T00:14:31.747Z,91906.34
2022-08-07T00:17:04.611Z,91904.41
2022-08-07T00:20:01.234Z,91907.38
2022-08-07T00:22:35.652Z,91909.94
2022-08-07T00:25:16.628Z,91908.03
2022-08-07T00:27:52.546Z,91909.22
2022-08-07T00:30:28.542Z,91902.75
2022-08-07T00:33:02.693Z,91911.09
2022-08-07T00:35:36.730Z,91912.25
2022-08-07T00:38:09.231Z,91905.03
2022-08-07T00:40:45.687Z,91906.56
2022-08-07T00:43:59.373Z,91908.44
2022-08-07T00:46:11.271Z,91907.63
2022-08-07T00:48:43.684Z,91909.50
2022-08-07T00:51:17.181Z,91915.03
2022-08-07T00:53:50.780Z,91910.41
2022-08-07T00:56:30.272Z,91916.31
2022-08-07T00:59:04.299Z,91918.56
2022-08-07T01:01:41.328Z,91912.06
2022-08-07T01:04:24.679Z,91911.25
2022-08-07T01:06:58.564Z,91912.81
2022-08-07T01:10:02.413Z,91914.38
2022-08-07T01:12:30.023Z,91899.78
2022-08-07T01:15:05.270Z,91897.44
2022-08-07T01:17:39.974Z,91915.56
2022-08-07T01:20:16.648Z,91919.59
2022-08-07T01:23:00.829Z,91914.31
2022-08-07T01:25:56.011Z,91907.09
2022-08-07T01:28:30.401Z,91906.66
2022-08-07T01:31:05.643Z,91906.66
2022-08-07T01:33:53.647Z,91917.94
2022-08-07T01:36:33.365Z,91913.34
2022-08-07T01:39:11.266Z,91920.69
2022-08-07T01:42:07.333Z,91918.00
2022-08-07T01:44:41.876Z,91905.78
2022-08-07T01:48:18.090Z,91921.34
2022-08-07T01:50:09.391Z,91920.53
2022-08-07T01:52:49.713Z,91922.41
2022-08-07T01:55:34.101Z,91923.13
2022-08-07T01:58:29.462Z,91921.47
2022-08-07T02:01:09.908Z,91935.47
2022-08-07T02:04:07.337Z,91939.97
2022-08-07T02:06:42.895Z,91955.06
2022-08-07T02:09:52.258Z,91970.44
2022-08-07T02:12:17.828Z,91987.88
2022-08-07T02:14:58.340Z,92015.31
2022-08-07T02:17:49.831Z,92001.13
2022-08-07T02:20:24.784Z,91999.41
2022-08-07T02:23:02.659Z,91997.22
2022-08-07T02:26:31.695Z,92008.28
2022-08-07T02:28:32.975Z,92011.63
2022-08-07T02:31:28.731Z,92001.78
2022-08-07T02:34:11.537Z,92001.81
2022-08-07T02:36:57.609Z,91989.00
2022-08-07T02:39:43.324Z,91977.72
2022-08-07T02:42:27.117Z,91966.34
2022-08-07T02:45:13.600Z,91937.41
2022-08-07T02:47:55.320Z,91921.94
2022-08-07T02:50:34.154Z,91912.09
2022-08-07T02:53:12.327Z,91903.16
2022-08-07T02:56:04.416Z,91903.19
2022-08-07T02:58:47.254Z,91897.09
2022-08-07T03:01:35.922Z,91913.22
2022-08-07T03:04:13.929Z,91921.81
2022-08-07T03:06:49.734Z,91913.03
2022-08-07T03:09:42.108Z,91919.06
2022-08-07T03:12:22.586Z,91919.91
2022-08-07T03:15:10.050Z,91913.84
2022-08-07T03:17:54.045Z,91900.78
2022-08-07T03:20:30.540Z,91888.09
2022-08-07T03:23:04.314Z,91898.38
2022-08-07T03:25:58.235Z,91899.16
2022-08-07T03:28:38.359Z,91899.56
2022-08-07T03:31:18.408Z,91902.25
2022-08-07T03:33:57.059Z,91897.91
2022-08-07T03:36:32.344Z,91894.88
2022-08-07T03:39:09.417Z,91901.28
2022-08-07T03:41:47.766Z,91902.31
2022-08-07T03:44:34.535Z,91893.66
2022-08-07T03:47:13.362Z,91892.56
2022-08-07T03:49:53.404Z,91906.66
2022-08-07T03:52:31.218Z,91910.44
2022-08-07T03:55:08.418Z,91914.66
2022-08-07T03:58:34.297Z,91913.22
2022-08-07T04:00:46.545Z,91907.94
2022-08-07T04:03:26.302Z,91933.28
2022-08-07T04:06:00.411Z,91943.81
2022-08-07T04:08:34.126Z,91947.88
2022-08-07T04:12:20.804Z,91952.78
2022-08-07T04:14:10.879Z,91955.44
2022-08-07T04:16:58.176Z,91948.97
2022-08-07T04:19:51.101Z,91950.47
2022-08-07T04:22:29.406Z,91941.91
2022-08-07T04:25:08.845Z,91939.53
2022-08-07T04:27:59.389Z,91936.59
2022-08-07T04:30:43.818Z,91939.59
2022-08-07T04:33:33.018Z,91948.59
2022-08-07T04:36:08.775Z,91958.16
2022-08-07T04:38:44.623Z,91952.78
2022-08-07T04:41:19.251Z,91963.81
2022-08-07T04:44:12.820Z,91954.66
2022-08-07T04:47:07.928Z,91966.34
2022-08-07T04:50:04.211Z,91968.34
2022-08-07T04:52:46.952Z,91973.28
2022-08-07T04:58:11.706Z,91967.53
2022-08-07T04:59:09.247Z,91975.91
2022-08-07T05:01:41.085Z,91978.22
2022-08-07T05:04:19.716Z,91977.13
2022-08-07T05:07:01.374Z,91974.09
2022-08-07T05:09:58.741Z,91978.31
2022-08-07T05:12:51.382Z,91988.59
2022-08-07T05:15:34.610Z,91982.25
2022-08-07T05:18:11.382Z,91986.94
2022-08-07T05:20:52.944Z,91993.47
2022-08-07T05:23:32.265Z,91995.47
2022-08-07T05:26:23.662Z,91994.69
2022-08-07T05:29:04.357Z,91994.41
2022-08-07T05:31:40.932Z,91992.63
2022-08-07T05:34:28.307Z,91986.16
2022-08-07T05:37:03.017Z,91987.66
2022-08-07T05:40:17.573Z,91998.66
2022-08-07T05:42:41.015Z,91996.53
2022-08-07T05:45:46.931Z,91998.53
2022-08-07T05:48:12.812Z,92003.94
2022-08-07T05:50:51.101Z,92008.94
2022-08-07T05:54:13.621Z,92009.88
2022-08-07T05:56:21.035Z,92018.38
2022-08-07T05:59:05.175Z,92014.72
2022-08-07T06:01:41.807Z,92018.16
2022-08-07T06:04:17.417Z,92022.53
2022-08-07T06:06:56.671Z,92028.28
2022-08-07T06:09:44.974Z,92035.63
2022-08-07T06:12:37.787Z,92033.06
2022-08-07T06:15:15.988Z,92028.97
2022-08-07T06:17:54.939Z,92037.50
2022-08-07T06:20:49.321Z,92040.19
2022-08-07T06:24:37.325Z,92041.81
2022-08-07T06:26:17.743Z,92035.06
2022-08-07T06:28:52.768Z,92035.47
2022-08-07T06:31:47.008Z,92032.16
2022-08-07T06:34:23.033Z,92030.69
2022-08-07T06:36:56.278Z,92032.63
2022-08-07T06:40:16.591Z,92028.56
2022-08-07T06:42:36.360Z,92023.28
2022-08-07T06:45:23.418Z,92025.25
2022-08-07T06:48:05.254Z,92025.28
2022-08-07T06:50:47.730Z,92028.31
2022-08-07T06:55:30.084Z,92029.16
2022-08-07T06:56:38.800Z,92039.44
2022-08-07T07:00:12.664Z,92041.75
2022-08-07T07:02:53.984Z,92038.34
2022-08-07T07:06:05.421Z,92041.78
2022-08-07T07:08:18.574Z,92029.19
2022-08-07T07:10:58.887Z,92039.78
2022-08-07T07:13:56.245Z,92038.97
2022-08-07T07:16:45.247Z,92040.91
2022-08-07T07:19:55.799Z,92046.56
2022-08-07T07:22:35.870Z,92044.66
2022-08-07T07:26:32.085Z,92049.19
2022-08-07T07:28:29.614Z,92039.66
2022-08-07T07:31:10.260Z,92046.06
2022-08-07T07:33:44.495Z,92044.09
2022-08-07T07:36:32.292Z,92045.59
2022-08-07T07:39:05.930Z,92049.69
2022-08-07T07:42:02.255Z,92048.81
2022-08-07T07:44:39.547Z,92050.88
2022-08-07T07:47:22.773Z,92043.69
2022-08-07T07:50:34.946Z,92059.66
2022-08-07T07:52:51.304Z,92059.72
2022-08-07T07:55:26.915Z,92051.69
2022-08-07T07:58:12.851Z,92049.53
2022-08-07T08:00:48.708Z,92048.34
2022-08-07T08:04:10.836Z,92050.09
2022-08-07T08:06:22.885Z,92062.47
2022-08-07T08:08:58.455Z,92061.16
2022-08-07T08:11:59.351Z,92058.50
2022-08-07T08:14:27.012Z,92056.53
2022-08-07T08:17:55.497Z,92051.19
2022-08-07T08:20:19.086Z,92064.44
2022-08-07T08:23:12.290Z,92060.00
2022-08-07T08:26:13.256Z,92055.44
2022-08-07T08:28:48.223Z,92058.25
2022-08-07T08:31:30.045Z,92058.31
2022-08-07T08:34:27.064Z,92059.47
2022-08-07T08:37:04.709Z,92050.47
2022-08-07T08:39:55.228Z,92064.09
2022-08-07T08:42:36.814Z,92055.97
2022-08-07T08:45:21.067Z,92066.44
2022-08-07T08:48:10.675Z,92075.91
2022-08-07T08:50:51.598Z,92069.50
2022-08-07T08:53:32.961Z,92063.69
2022-08-07T08:56:10.249Z,92069.09
2022-08-07T08:58:54.650Z,92071.03
2022-08-07T09:01:40.017Z,92069.50
2022-08-07T09:04:30.075Z,92065.81
2022-08-07T09:07:11.365Z,92076.66
2022-08-07T09:09:59.634Z,92076.59
2022-08-07T09:12:53.150Z,92073.72
2022-08-07T09:16:24.755Z,92067.13
2022-08-07T09:18:47.320Z,92072.56
2022-08-07T09:22:09.875Z,92072.16
2022-08-07T09:24:58.831Z,92067.91
2022-08-07T09:28:00.691Z,92065.63
2022-08-07T09:30:58.016Z,92069.41
2022-08-07T09:33:56.748Z,92063.44
2022-08-07T09:36:37.245Z,92066.91
2022-08-07T09:39:53.641Z,92068.72
2022-08-07T09:42:37.640Z,92056.16
2022-08-07T09:47:20.070Z,92056.53
2022-08-07T09:48:20.504Z,92057.88
2022-08-07T09:51:14.820Z,92063.97
2022-08-07T09:54:03.297Z,92057.19
2022-08-07T09:57:07.415Z,92057.84
2022-08-07T10:00:09.195Z,92054.97
2022-08-07T10:04:05.538Z,92053.28
2022-08-07T10:06:27.368Z,92051.97
2022-08-07T10:09:42.739Z,92048.50
2022-08-07T10:12:42.042Z,92042.63
2022-08-07T10:15:49.524Z,92032.81
2022-08-07T10:19:00.216Z,92028.25
2022-08-07T10:22:12.418Z,92034.38
2022-08-07T10:24:55.672Z,92038.00
2022-08-07T10:27:51.386Z,92035.56
2022-08-07T10:30:32.958Z,92029.63
2022-08-07T10:34:04.980Z,92034.84
2022-08-07T10:36:29.350Z,92040.03
2022-08-07T10:39:10.487Z,92051.94
2022-08-07T10:42:00.254Z,92048.00
2022-08-07T10:45:11.422Z,92049.59
2022-08-07T10:48:03.050Z,92045.66
2022-08-07T10:50:49.840Z,92039.13
2022-08-07T10:53:27.934Z,92042.91
2022-08-07T10:56:30.795Z,92034.56
2022-08-07T10:59:21.648Z,92043.78
2022-08-07T11:02:04.663Z,92037.53
2022-08-07T11:04:49.858Z,92032.63
2022-08-07T11:08:00.835Z,92043.25
2022-08-07T11:10:40.455Z,92035.84
2022-08-07T11:14:42.102Z,92040.41
2022-08-07T11:16:19.531Z,92038.34
2022-08-07T11:18:58.999Z,92038.06
2022-08-07T11:21:42.827Z,92049.00
2022-08-07T11:24:22.343Z,92039.47
2022-08-07T11:27:01.820Z,92033.53
2022-08-07T11:29:47.297Z,92032.13
2022-08-07T11:32:31.002Z,92028.94
2022-08-07T11:35:09.313Z,92026.59
2022-08-07T11:38:12.556Z,92029.84
2022-08-07T11:40:56.125Z,92028.59
2022-08-07T11:43:54.501Z,92021.34
2022-08-07T11:46:56.562Z,92016.88
2022-08-07T11:50:31.215Z,92026.25
2022-08-07T11:53:02.647Z,92022.38
2022-08-07T11:56:09.010Z,92029.31
2022-08-07T11:59:07.668Z,92028.38
2022-08-07T12:02:20.746Z,92028.97
2022-08-07T12:05:15.268Z,92039.09
2022-08-07T12:08:11.495Z,92035.75
2022-08-07T12:11:21.799Z,92038.03
2022-08-07T12:14:02.706Z,92033.66
2022-08-07T12:16:42.221Z,92039.00
2022-08-07T12:19:21.759Z,92016.09
2022-08-07T12:22:39.667Z,92019.75
2022-08-07T12:26:05.945Z,92020.56
2022-08-07T12:28:17.871Z,92017.81
2022-08-07T12:31:06.355Z,92025.78
2022-08-07T12:33:56.068Z,92017.53
2022-08-07T12:36:36.299Z,92013.81
2022-08-07T12:39:42.873Z,92012.19
2022-08-07T12:42:07.026Z,92013.72
2022-08-07T12:44:45.151Z,92012.06
2022-08-07T12:47:27.009Z,92000.81
2022-08-07T12:50:38.929Z,91995.53
2022-08-07T12:53:18.247Z,92008.41
2022-08-07T12:56:02.905Z,92005.78
2022-08-07T12:58:40.009Z,92012.28
2022-08-07T13:01:32.575Z,92010.47
2022-08-07T13:04:32.569Z,92006.31
2022-08-07T13:08:13.842Z,92011.13
2022-08-07T13:10:40.878Z,92002.53
2022-08-07T13:13:48.097Z,91996.22
2022-08-07T13:16:30.119Z,92011.25
2022-08-07T13:19:25.252Z,92004.25
2022-08-07T13:22:19.656Z,92003.81
2022-08-07T13:25:03.857Z,92005.56
2022-08-07T13:28:12.359Z,92006.31
2022-08-07T13:30:40.221Z,92008.31
2022-08-07T13:34:33.179Z,91998.91
2022-08-07T13:36:25.975Z,92005.50
2022-08-07T13:39:11.109Z,92006.19
2022-08-07T13:41:50.276Z,91999.38
2022-08-07T13:44:34.544Z,92007.25
2022-08-07T13:47:15.990Z,91994.56
2022-08-07T13:50:34.784Z,91989.75
2022-08-07T13:52:58.193Z,91994.91
2022-08-07T13:55:36.962Z,91985.50
2022-08-07T13:58:32.007Z,91985.91
2022-08-07T14:01:12.099Z,91995.59
2022-08-07T14:04:09.618Z,91986.50
2022-08-07T14:06:44.199Z,91989.00
2022-08-07T14:10:01.564Z,91988.38
2022-08-07T14:12:28.050Z,91976.00
2022-08-07T14:15:04.460Z,91985.09
2022-08-07T14:18:23.662Z,91973.25
2022-08-07T14:20:42.841Z,91981.44
2022-08-07T14:23:31.729Z,91965.84
2022-08-07T14:26:28.045Z,91982.50
2022-08-07T14:30:04.984Z,91978.00
2022-08-07T14:32:01.338Z,91975.13
2022-08-07T14:34:45.888Z,91984.75
2022-08-07T14:37:23.824Z,91982.59
2022-08-07T14:40:26.439Z,91977.59
2022-08-07T14:43:57.743Z,91973.41
2022-08-07T14:45:58.197Z,91976.91
2022-08-07T14:48:33.855Z,91966.53
2022-08-07T14:51:15.883Z,91981.00
2022-08-07T14:54:09.974Z,91972.88
2022-08-07T14:56:48.362Z,91971.41
2022-08-07T15:00:03.433Z,91964.16
2022-08-07T15:02:33.062Z,91972.03
2022-08-07T15:05:20.355Z,91973.59
2022-08-07T15:07:56.081Z,91970.56
2022-08-07T15:10:31.975Z,91964.13
2022-08-07T15:13:15.311Z,91961.38
2022-08-07T15:15:52.643Z,91962.25
2022-08-07T15:18:41.611Z,91954.13
2022-08-07T15:21:59.395Z,91950.97
2022-08-07T15:25:13.163Z,91944.59
2022-08-07T15:27:10.571Z,91950.22
2022-08-07T15:30:08.408Z,91946.34
2022-08-07T15:38:51.008Z,91952.47
2022-08-07T15:42:46.467Z,91946.34
2022-08-07T15:44:23.817Z,91953.00
2022-08-07T15:47:03.310Z,91943.84
2022-08-07T15:50:04.859Z,91957.97
2022-08-07T15:52:39.686Z,91952.72
2022-08-07T15:55:20.140Z,91960.94
2022-08-07T15:58:00.356Z,91955.06
2022-08-07T16:00:36.827Z,91953.31
2022-08-07T16:03:21.532Z,91960.00
2022-08-07T16:06:12.462Z,91969.09
2022-08-07T16:08:47.010Z,91961.75
2022-08-07T16:11:34.349Z,91978.50
2022-08-07T16:14:19.176Z,91976.53
2022-08-07T16:17:02.814Z,91967.78
2022-08-07T16:20:33.998Z,91972.31
2022-08-07T16:23:54.619Z,91986.59
2022-08-07T16:26:38.996Z,91984.63
2022-08-07T16:30:10.030Z,91992.75
2022-08-07T16:34:02.961Z,92001.59
2022-08-07T16:36:23.035Z,92000.50
2022-08-07T16:39:40.350Z,92000.59
2022-08-07T16:42:43.157Z,92004.50
2022-08-07T16:46:33.171Z,92001.81
2022-08-07T16:50:20.622Z,92005.94
2022-08-07T16:52:51.371Z,92005.56
2022-08-07T16:55:13.160Z,92008.94
2022-08-07T16:58:03.010Z,92015.75
2022-08-07T17:00:40.546Z,92025.22
2022-08-07T17:03:57.977Z,92032.09
2022-08-07T17:06:44.301Z,92035.69
2022-08-07T17:10:08.507Z,92049.56
2022-08-07T17:12:34.129Z,92057.31
2022-08-07T17:15:19.419Z,92055.81
2022-08-07T17:18:00.299Z,92058.88
2022-08-07T17:20:37.451Z,92066.88
2022-08-07T17:23:34.892Z,92079.81
2022-08-07T17:26:22.727Z,92082.50
2022-08-07T17:30:12.902Z,92079.44
2022-08-07T17:32:31.260Z,92087.03
2022-08-07T17:35:50.459Z,92088.19
2022-08-07T17:38:33.482Z,92090.44
2022-08-07T17:42:00.589Z,92086.22
2022-08-07T17:44:13.596Z,92096.50
2022-08-07T17:46:54.578Z,92087.69
2022-08-07T17:49:43.079Z,92092.63
2022-08-07T17:52:30.604Z,92094.09
2022-08-07T17:55:07.634Z,92090.66
2022-08-07T17:57:59.207Z,92103.59
2022-08-07T18:00:48.693Z,92102.03
2022-08-07T18:03:27.777Z,92109.22
2022-08-07T18:06:16.396Z,92106.91
2022-08-07T18:09:02.218Z,92109.56
2022-08-07T18:12:16.602Z,92117.91
2022-08-07T18:14:46.202Z,92123.53
2022-08-07T18:18:33.159Z,92124.69
2022-08-07T18:21:07.067Z,92131.53
2022-08-07T18:23:43.601Z,92134.59
2022-08-07T18:26:33.551Z,92141.44
2022-08-07T18:30:06.641Z,92152.00
2022-08-07T18:32:21.125Z,92148.19
2022-08-07T18:35:11.550Z,92156.16
2022-08-07T18:38:56.382Z,92155.00
2022-08-07T18:41:21.387Z,92159.13
2022-08-07T18:44:02.880Z,92167.03
2022-08-07T18:46:50.510Z,92172.31
2022-08-07T18:50:33.099Z,92174.97
2022-08-07T18:52:57.927Z,92176.06
2022-08-07T18:55:57.271Z,92169.84
2022-08-07T18:58:51.130Z,92165.25
2022-08-07T19:02:20.068Z,92157.31
2022-08-07T19:04:39.677Z,92163.81
2022-08-07T19:07:35.021Z,92173.34
2022-08-07T19:10:21.386Z,92179.75
2022-08-07T19:12:59.589Z,92180.88
2022-08-07T19:16:04.612Z,92169.06
2022-08-07T19:18:54.131Z,92169.06
2022-08-07T19:21:43.955Z,92168.63
2022-08-07T19:24:30.049Z,92167.56
2022-08-07T19:28:30.495Z,92164.50
2022-08-07T19:31:06.290Z,92170.97
2022-08-07T19:33:10.226Z,92167.19
2022-08-07T19:35:57.297Z,92169.03
2022-08-07T19:38:33.390Z,92171.69
2022-08-07T19:41:07.652Z,92169.84
2022-08-07T19:43:49.411Z,92172.50
2022-08-07T19:46:34.808Z,92174.75
2022-08-07T19:49:11.853Z,92180.84
2022-08-07T19:51:52.539Z,92163.63
2022-08-07T19:54:55.659Z,92181.75
2022-08-07T19:58:01.618Z,92184.38
2022-08-07T20:00:34.495Z,92179.41
2022-08-07T20:03:35.318Z,92176.72
2022-08-07T20:06:06.344Z,92184.19
2022-08-07T20:08:51.360Z,92170.47
2022-08-07T20:12:23.426Z,92167.34
2022-08-07T20:14:31.344Z,92161.97
2022-08-07T20:17:07.442Z,92166.44
2022-08-07T20:19:48.314Z,92162.59
2022-08-07T20:22:34.832Z,92163.72
2022-08-07T20:25:19.306Z,92164.53
2022-08-07T20:27:58.796Z,92170.94
2022-08-07T20:30:38.305Z,92162.19
2022-08-07T20:33:24.332Z,92163.22
2022-08-07T20:36:10.041Z,92171.94
2022-08-07T20:38:59.818Z,92175.34
2022-08-07T20:41:38.408Z,92179.13
2022-08-07T20:44:13.808Z,92174.59
2022-08-07T20:46:48.082Z,92178.38
2022-08-07T20:49:59.820Z,92182.25
2022-08-07T20:52:51.795Z,92182.25
2022-08-07T20:55:25.414Z,92185.34
2022-08-07T20:58:03.305Z,92181.47
2022-08-07T21:00:47.175Z,92187.91
2022-08-07T21:03:26.038Z,92191.34
2022-08-07T21:06:22.353Z,92186.44
2022-08-07T21:09:03.753Z,92188.69
2022-08-07T21:11:52.233Z,92192.09
2022-08-07T21:14:35.422Z,92190.44
2022-08-07T21:18:02.602Z,92191.66
2022-08-07T21:20:06.207Z,92188.63
2022-08-07T21:22:51.226Z,92174.59
2022-08-07T21:25:39.156Z,92191.28
2022-08-07T21:28:47.728Z,92193.44
2022-08-07T21:31:14.901Z,92190.44
2022-08-07T21:33:53.787Z,92193.13
2022-08-07T21:36:34.228Z,92193.09
2022-08-07T21:39:45.935Z,92195.72
2022-08-07T21:42:42.843Z,92200.91
2022-08-07T21:46:08.049Z,92193.16
2022-08-07T21:48:29.137Z,92201.84
2022-08-07T21:51:19.291Z,92201.38
2022-08-07T21:54:00.818Z,92196.06
2022-08-07T21:56:47.983Z,92201.72
2022-08-07T22:00:02.914Z,92198.25
2022-08-07T22:02:33.852Z,92203.84
2022-08-07T22:05:21.698Z,92199.25
2022-08-07T22:08:01.922Z,92200.34
2022-08-07T22:10:38.266Z,92206.66
2022-08-07T22:13:16.655Z,92200.44
2022-08-07T22:16:38.517Z,92200.78
2022-08-07T22:18:57.901Z,92204.56
2022-08-07T22:22:02.692Z,92197.44
2022-08-07T22:24:40.713Z,92200.38
2022-08-07T22:27:34.039Z,92195.06
2022-08-07T22:30:21.223Z,92206.31
2022-08-07T22:33:03.965Z,92202.03
2022-08-07T22:35:43.503Z,92202.81
2022-08-07T22:38:25.948Z,92203.59
2022-08-07T22:41:07.715Z,92206.91
2022-08-07T22:43:46.671Z,92205.63
2022-08-07T22:47:03.563Z,92198.34
2022-08-07T22:49:51.813Z,92206.91
2022-08-07T22:52:55.754Z,92209.22
2022-08-07T22:55:47.863Z,92214.44
2022-08-07T22:58:47.559Z,92213.75
2022-08-07T23:01:51.084Z,92221.53
2022-08-07T23:04:57.915Z,92220.09
2022-08-07T23:07:53.640Z,92219.13
2022-08-07T23:10:42.101Z,92220.94
2022-08-07T23:13:49.304Z,92220.56
2022-08-07T23:16:44.613Z,92217.06
2022-08-07T23:20:00.154Z,92229.25
2022-08-07T23:22:49.868Z,92213.56
2022-08-07T23:25:41.535Z,92218.88
2022-08-07T23:28:31.314Z,92214.53
2022-08-07T23:31:42.751Z,92214.19
2022-08-07T23:34:37.520Z,92220.22
2022-08-07T23:37:34.660Z,92219.75
2022-08-07T23:40:21.556Z,92220.09
2022-08-07T23:43:17.482Z,92217.88
2022-08-07T23:46:10.526Z,92216.97
2022-08-07T23:49:15.675Z,92216.53
2022-08-07T23:53:05.491Z,92214.53
2022-08-07T23:54:54.951Z,92217.44
2022-08-07T23:57:36.132Z,92211.53
